sensor_id;sensor_type;location;lat;lon;timestamp;P1;durP1;ratioP1;P2;durP2;ratioP2
68976;SDS011;56029;52.568;13.588;2023-04-24T00:00:54;10.57;;;6.43;;
68976;SDS011;56029;52.568;13.588;2023-04-24T00:03:24;10.13;;;6.10;;
68976;SDS011;56029;52.568;13.588;2023-04-24T00:05:53;11.13;;;6.43;;
68976;SDS011;56029;52.568;13.588;2023-04-24T00:08:19;11.35;;;6.85;;
68976;SDS011;56029;52.568;13.588;2023-04-24T00:10:45;11.27;;;6.55;;
68976;SDS011;56029;52.568;13.588;2023-04-24T00:13:10;11.77;;;6.63;;
68976;SDS011;56029;52.568;13.588;2023-04-24T00:15:36;11.20;;;6.60;;
68976;SDS011;56029;52.568;13.588;2023-04-24T00:18:01;11.83;;;6.77;;
68976;SDS011;56029;52.568;13.588;2023-04-24T00:20:27;12.07;;;6.82;;
68976;SDS011;56029;52.568;13.588;2023-04-24T00:22:54;12.18;;;7.22;;
68976;SDS011;56029;52.568;13.588;2023-04-24T00:25:20;12.27;;;7.30;;
68976;SDS011;56029;52.568;13.588;2023-04-24T00:27:46;13.63;;;7.32;;
68976;SDS011;56029;52.568;13.588;2023-04-24T00:30:12;13.35;;;7.35;;
68976;SDS011;56029;52.568;13.588;2023-04-24T00:32:37;13.13;;;7.83;;
68976;SDS011;56029;52.568;13.588;2023-04-24T00:35:03;11.00;;;7.10;;
68976;SDS011;56029;52.568;13.588;2023-04-24T00:37:31;12.10;;;7.30;;
68976;SDS011;56029;52.568;13.588;2023-04-24T00:39:56;13.45;;;7.53;;
68976;SDS011;56029;52.568;13.588;2023-04-24T00:42:22;13.53;;;8.00;;
68976;SDS011;56029;52.568;13.588;2023-04-24T00:44:48;13.07;;;7.60;;
68976;SDS011;56029;52.568;13.588;2023-04-24T00:47:13;12.53;;;7.67;;
68976;SDS011;56029;52.568;13.588;2023-04-24T00:49:39;11.80;;;6.93;;
68976;SDS011;56029;52.568;13.588;2023-04-24T00:52:05;11.93;;;7.03;;
68976;SDS011;56029;52.568;13.588;2023-04-24T00:54:34;12.55;;;7.40;;
68976;SDS011;56029;52.568;13.588;2023-04-24T00:57:01;12.70;;;7.25;;
68976;SDS011;56029;52.568;13.588;2023-04-24T00:59:28;11.55;;;6.70;;
68976;SDS011;56029;52.568;13.588;2023-04-24T01:01:53;11.47;;;6.70;;
68976;SDS011;56029;52.568;13.588;2023-04-24T01:04:19;12.13;;;7.20;;
68976;SDS011;56029;52.568;13.588;2023-04-24T01:06:45;12.50;;;6.63;;
68976;SDS011;56029;52.568;13.588;2023-04-24T01:09:11;11.15;;;6.65;;
68976;SDS011;56029;52.568;13.588;2023-04-24T01:11:37;10.95;;;6.68;;
68976;SDS011;56029;52.568;13.588;2023-04-24T01:14:03;10.83;;;6.60;;
68976;SDS011;56029;52.568;13.588;2023-04-24T01:16:29;11.73;;;6.82;;
68976;SDS011;56029;52.568;13.588;2023-04-24T01:18:54;12.93;;;7.00;;
68976;SDS011;56029;52.568;13.588;2023-04-24T01:21:20;10.75;;;6.53;;
68976;SDS011;56029;52.568;13.588;2023-04-24T01:23:47;12.00;;;6.60;;
68976;SDS011;56029;52.568;13.588;2023-04-24T01:26:13;11.60;;;7.00;;
68976;SDS011;56029;52.568;13.588;2023-04-24T01:28:42;10.77;;;6.53;;
68976;SDS011;56029;52.568;13.588;2023-04-24T01:31:07;13.25;;;7.10;;
68976;SDS011;56029;52.568;13.588;2023-04-24T01:33:33;13.07;;;7.30;;
68976;SDS011;56029;52.568;13.588;2023-04-24T01:35:59;14.00;;;7.07;;
68976;SDS011;56029;52.568;13.588;2023-04-24T01:38:25;12.55;;;7.20;;
68976;SDS011;56029;52.568;13.588;2023-04-24T01:40:50;13.03;;;7.60;;
68976;SDS011;56029;52.568;13.588;2023-04-24T01:43:16;12.35;;;7.50;;
68976;SDS011;56029;52.568;13.588;2023-04-24T01:45:43;12.60;;;7.60;;
68976;SDS011;56029;52.568;13.588;2023-04-24T01:48:08;13.83;;;7.77;;
68976;SDS011;56029;52.568;13.588;2023-04-24T01:50:34;13.13;;;7.85;;
68976;SDS011;56029;52.568;13.588;2023-04-24T01:53:00;13.80;;;7.70;;
68976;SDS011;56029;52.568;13.588;2023-04-24T01:55:25;14.32;;;7.45;;
68976;SDS011;56029;52.568;13.588;2023-04-24T01:57:52;14.37;;;7.80;;
68976;SDS011;56029;52.568;13.588;2023-04-24T02:00:17;12.95;;;7.80;;
68976;SDS011;56029;52.568;13.588;2023-04-24T02:02:43;13.52;;;7.93;;
68976;SDS011;56029;52.568;13.588;2023-04-24T02:05:09;13.70;;;7.88;;
68976;SDS011;56029;52.568;13.588;2023-04-24T02:07:36;14.03;;;8.00;;
68976;SDS011;56029;52.568;13.588;2023-04-24T02:10:02;13.07;;;7.95;;
68976;SDS011;56029;52.568;13.588;2023-04-24T02:12:29;13.50;;;7.80;;
68976;SDS011;56029;52.568;13.588;2023-04-24T02:14:55;14.35;;;8.20;;
68976;SDS011;56029;52.568;13.588;2023-04-24T02:17:20;14.20;;;8.27;;
68976;SDS011;56029;52.568;13.588;2023-04-24T02:19:46;13.85;;;8.55;;
68976;SDS011;56029;52.568;13.588;2023-04-24T02:22:12;14.07;;;7.90;;
68976;SDS011;56029;52.568;13.588;2023-04-24T02:24:37;14.45;;;8.23;;
68976;SDS011;56029;52.568;13.588;2023-04-24T02:27:03;13.80;;;7.87;;
68976;SDS011;56029;52.568;13.588;2023-04-24T02:29:29;14.13;;;8.23;;
68976;SDS011;56029;52.568;13.588;2023-04-24T02:31:55;13.85;;;8.10;;
68976;SDS011;56029;52.568;13.588;2023-04-24T02:34:21;13.83;;;8.27;;
68976;SDS011;56029;52.568;13.588;2023-04-24T02:36:47;13.37;;;8.50;;
68976;SDS011;56029;52.568;13.588;2023-04-24T02:39:12;13.10;;;7.70;;
68976;SDS011;56029;52.568;13.588;2023-04-24T02:41:38;14.57;;;8.50;;
68976;SDS011;56029;52.568;13.588;2023-04-24T02:44:04;13.45;;;7.45;;
68976;SDS011;56029;52.568;13.588;2023-04-24T02:46:29;14.00;;;7.70;;
68976;SDS011;56029;52.568;13.588;2023-04-24T02:48:55;14.27;;;8.20;;
68976;SDS011;56029;52.568;13.588;2023-04-24T02:51:21;13.40;;;8.00;;
68976;SDS011;56029;52.568;13.588;2023-04-24T02:53:46;12.93;;;7.40;;
68976;SDS011;56029;52.568;13.588;2023-04-24T02:56:12;13.37;;;7.80;;
68976;SDS011;56029;52.568;13.588;2023-04-24T02:58:38;13.20;;;7.63;;
68976;SDS011;56029;52.568;13.588;2023-04-24T03:01:04;13.83;;;7.53;;
68976;SDS011;56029;52.568;13.588;2023-04-24T03:03:30;12.50;;;7.57;;
68976;SDS011;56029;52.568;13.588;2023-04-24T03:05:55;13.32;;;7.88;;
68976;SDS011;56029;52.568;13.588;2023-04-24T03:08:22;12.63;;;7.72;;
68976;SDS011;56029;52.568;13.588;2023-04-24T03:10:48;13.82;;;7.57;;
68976;SDS011;56029;52.568;13.588;2023-04-24T03:13:13;12.70;;;7.77;;
68976;SDS011;56029;52.568;13.588;2023-04-24T03:15:39;12.50;;;7.50;;
68976;SDS011;56029;52.568;13.588;2023-04-24T03:18:04;13.57;;;7.80;;
68976;SDS011;56029;52.568;13.588;2023-04-24T03:20:30;13.03;;;7.70;;
68976;SDS011;56029;52.568;13.588;2023-04-24T03:22:55;12.43;;;7.70;;
68976;SDS011;56029;52.568;13.588;2023-04-24T03:25:22;13.50;;;8.10;;
68976;SDS011;56029;52.568;13.588;2023-04-24T03:27:47;13.57;;;8.13;;
68976;SDS011;56029;52.568;13.588;2023-04-24T03:30:13;13.38;;;7.88;;
68976;SDS011;56029;52.568;13.588;2023-04-24T03:32:38;13.30;;;8.03;;
68976;SDS011;56029;52.568;13.588;2023-04-24T03:35:05;12.70;;;8.13;;
68976;SDS011;56029;52.568;13.588;2023-04-24T03:37:32;13.03;;;8.10;;
68976;SDS011;56029;52.568;13.588;2023-04-24T03:39:58;12.93;;;7.93;;
68976;SDS011;56029;52.568;13.588;2023-04-24T03:42:24;14.60;;;8.60;;
68976;SDS011;56029;52.568;13.588;2023-04-24T03:44:49;13.30;;;8.00;;
68976;SDS011;56029;52.568;13.588;2023-04-24T03:47:15;14.02;;;8.20;;
68976;SDS011;56029;52.568;13.588;2023-04-24T03:49:40;13.63;;;7.77;;
68976;SDS011;56029;52.568;13.588;2023-04-24T03:52:06;13.45;;;8.15;;
68976;SDS011;56029;52.568;13.588;2023-04-24T03:54:32;13.33;;;8.10;;
68976;SDS011;56029;52.568;13.588;2023-04-24T03:56:57;14.07;;;8.23;;
68976;SDS011;56029;52.568;13.588;2023-04-24T03:59:23;13.40;;;8.23;;
68976;SDS011;56029;52.568;13.588;2023-04-24T04:01:48;14.83;;;8.30;;
68976;SDS011;56029;52.568;13.588;2023-04-24T04:04:14;13.02;;;8.13;;
68976;SDS011;56029;52.568;13.588;2023-04-24T04:06:39;12.57;;;8.07;;
68976;SDS011;56029;52.568;13.588;2023-04-24T04:09:05;12.13;;;7.63;;
68976;SDS011;56029;52.568;13.588;2023-04-24T04:11:32;12.75;;;8.27;;
68976;SDS011;56029;52.568;13.588;2023-04-24T04:13:58;13.73;;;8.52;;
68976;SDS011;56029;52.568;13.588;2023-04-24T04:16:23;14.43;;;8.70;;
68976;SDS011;56029;52.568;13.588;2023-04-24T04:18:49;13.77;;;8.45;;
68976;SDS011;56029;52.568;13.588;2023-04-24T04:21:15;12.30;;;7.87;;
68976;SDS011;56029;52.568;13.588;2023-04-24T04:23:41;13.82;;;8.43;;
68976;SDS011;56029;52.568;13.588;2023-04-24T04:26:06;13.23;;;8.03;;
68976;SDS011;56029;52.568;13.588;2023-04-24T04:28:33;13.18;;;8.30;;
68976;SDS011;56029;52.568;13.588;2023-04-24T04:30:58;13.87;;;8.17;;
68976;SDS011;56029;52.568;13.588;2023-04-24T04:33:24;14.20;;;8.02;;
68976;SDS011;56029;52.568;13.588;2023-04-24T04:35:51;12.45;;;7.90;;
68976;SDS011;56029;52.568;13.588;2023-04-24T04:38:17;13.33;;;8.47;;
68976;SDS011;56029;52.568;13.588;2023-04-24T04:40:44;12.82;;;8.30;;
68976;SDS011;56029;52.568;13.588;2023-04-24T04:43:11;12.75;;;7.97;;
68976;SDS011;56029;52.568;13.588;2023-04-24T04:45:38;13.35;;;8.80;;
68976;SDS011;56029;52.568;13.588;2023-04-24T04:48:05;13.55;;;8.48;;
68976;SDS011;56029;52.568;13.588;2023-04-24T04:50:32;12.93;;;8.30;;
68976;SDS011;56029;52.568;13.588;2023-04-24T04:52:58;14.25;;;8.55;;
68976;SDS011;56029;52.568;13.588;2023-04-24T04:55:24;13.20;;;8.50;;
68976;SDS011;56029;52.568;13.588;2023-04-24T04:57:50;15.67;;;8.33;;
68976;SDS011;56029;52.568;13.588;2023-04-24T05:00:15;12.70;;;8.50;;
68976;SDS011;56029;52.568;13.588;2023-04-24T05:02:41;12.25;;;8.10;;
68976;SDS011;56029;52.568;13.588;2023-04-24T05:05:07;12.63;;;7.93;;
68976;SDS011;56029;52.568;13.588;2023-04-24T05:07:34;12.63;;;7.88;;
68976;SDS011;56029;52.568;13.588;2023-04-24T05:09:59;12.37;;;7.50;;
68976;SDS011;56029;52.568;13.588;2023-04-24T05:12:25;11.93;;;7.50;;
68976;SDS011;56029;52.568;13.588;2023-04-24T05:14:51;12.87;;;7.87;;
68976;SDS011;56029;52.568;13.588;2023-04-24T05:17:17;12.68;;;7.70;;
68976;SDS011;56029;52.568;13.588;2023-04-24T05:19:42;11.60;;;7.10;;
68976;SDS011;56029;52.568;13.588;2023-04-24T05:22:08;12.30;;;7.57;;
68976;SDS011;56029;52.568;13.588;2023-04-24T05:24:34;12.82;;;7.40;;
68976;SDS011;56029;52.568;13.588;2023-04-24T05:27:00;12.10;;;7.33;;
68976;SDS011;56029;52.568;13.588;2023-04-24T05:29:27;12.05;;;7.40;;
68976;SDS011;56029;52.568;13.588;2023-04-24T05:31:56;11.15;;;6.43;;
68976;SDS011;56029;52.568;13.588;2023-04-24T05:34:21;11.07;;;6.57;;
68976;SDS011;56029;52.568;13.588;2023-04-24T05:36:47;10.48;;;6.00;;
68976;SDS011;56029;52.568;13.588;2023-04-24T05:39:13;10.37;;;6.30;;
68976;SDS011;56029;52.568;13.588;2023-04-24T05:41:39;9.57;;;6.00;;
68976;SDS011;56029;52.568;13.588;2023-04-24T05:44:04;10.45;;;6.30;;
68976;SDS011;56029;52.568;13.588;2023-04-24T05:46:30;9.03;;;5.70;;
68976;SDS011;56029;52.568;13.588;2023-04-24T05:48:55;8.93;;;5.57;;
68976;SDS011;56029;52.568;13.588;2023-04-24T05:51:21;9.82;;;5.32;;
68976;SDS011;56029;52.568;13.588;2023-04-24T05:53:47;8.57;;;4.73;;
68976;SDS011;56029;52.568;13.588;2023-04-24T05:56:13;7.55;;;4.57;;
68976;SDS011;56029;52.568;13.588;2023-04-24T05:58:38;8.10;;;4.80;;
68976;SDS011;56029;52.568;13.588;2023-04-24T06:01:04;8.02;;;4.63;;
68976;SDS011;56029;52.568;13.588;2023-04-24T06:03:31;6.83;;;4.30;;
68976;SDS011;56029;52.568;13.588;2023-04-24T06:05:57;7.60;;;4.35;;
68976;SDS011;56029;52.568;13.588;2023-04-24T06:08:22;8.77;;;4.30;;
68976;SDS011;56029;52.568;13.588;2023-04-24T06:10:48;6.95;;;4.10;;
68976;SDS011;56029;52.568;13.588;2023-04-24T06:13:13;8.93;;;4.00;;
68976;SDS011;56029;52.568;13.588;2023-04-24T06:15:39;8.07;;;4.10;;
68976;SDS011;56029;52.568;13.588;2023-04-24T06:18:05;6.55;;;4.00;;
68976;SDS011;56029;52.568;13.588;2023-04-24T06:20:31;7.72;;;3.85;;
68976;SDS011;56029;52.568;13.588;2023-04-24T06:22:56;7.97;;;4.03;;
68976;SDS011;56029;52.568;13.588;2023-04-24T06:25:24;6.13;;;3.80;;
68976;SDS011;56029;52.568;13.588;2023-04-24T06:27:51;7.20;;;3.88;;
68976;SDS011;56029;52.568;13.588;2023-04-24T06:30:16;8.17;;;3.60;;
68976;SDS011;56029;52.568;13.588;2023-04-24T06:32:42;6.75;;;3.63;;
68976;SDS011;56029;52.568;13.588;2023-04-24T06:35:08;8.63;;;3.80;;
68976;SDS011;56029;52.568;13.588;2023-04-24T06:37:35;6.80;;;3.13;;
68976;SDS011;56029;52.568;13.588;2023-04-24T06:40:01;6.32;;;2.85;;
68976;SDS011;56029;52.568;13.588;2023-04-24T06:42:26;5.83;;;3.03;;
68976;SDS011;56029;52.568;13.588;2023-04-24T06:44:52;5.53;;;2.80;;
68976;SDS011;56029;52.568;13.588;2023-04-24T06:47:17;5.40;;;3.00;;
68976;SDS011;56029;52.568;13.588;2023-04-24T06:49:43;6.63;;;2.70;;
68976;SDS011;56029;52.568;13.588;2023-04-24T06:52:09;6.00;;;2.57;;
68976;SDS011;56029;52.568;13.588;2023-04-24T06:54:35;5.70;;;2.80;;
68976;SDS011;56029;52.568;13.588;2023-04-24T06:57:00;4.63;;;2.75;;
68976;SDS011;56029;52.568;13.588;2023-04-24T06:59:27;4.80;;;2.50;;
68976;SDS011;56029;52.568;13.588;2023-04-24T07:01:53;5.72;;;2.70;;
68976;SDS011;56029;52.568;13.588;2023-04-24T07:04:19;3.93;;;2.47;;
68976;SDS011;56029;52.568;13.588;2023-04-24T07:06:45;4.57;;;2.40;;
68976;SDS011;56029;52.568;13.588;2023-04-24T07:09:11;4.45;;;2.40;;
68976;SDS011;56029;52.568;13.588;2023-04-24T07:11:38;4.43;;;2.20;;
68976;SDS011;56029;52.568;13.588;2023-04-24T07:14:06;5.30;;;2.60;;
68976;SDS011;56029;52.568;13.588;2023-04-24T07:16:32;5.15;;;2.10;;
68976;SDS011;56029;52.568;13.588;2023-04-24T07:18:57;3.42;;;2.25;;
68976;SDS011;56029;52.568;13.588;2023-04-24T07:21:23;5.43;;;2.40;;
68976;SDS011;56029;52.568;13.588;2023-04-24T07:23:48;3.90;;;2.40;;
68976;SDS011;56029;52.568;13.588;2023-04-24T07:26:14;4.53;;;2.20;;
68976;SDS011;56029;52.568;13.588;2023-04-24T07:28:40;4.33;;;2.00;;
68976;SDS011;56029;52.568;13.588;2023-04-24T07:31:08;3.97;;;2.30;;
68976;SDS011;56029;52.568;13.588;2023-04-24T07:33:34;4.20;;;2.05;;
68976;SDS011;56029;52.568;13.588;2023-04-24T07:36:01;3.70;;;2.17;;
68976;SDS011;56029;52.568;13.588;2023-04-24T07:38:29;3.70;;;1.90;;
68976;SDS011;56029;52.568;13.588;2023-04-24T07:40:54;2.80;;;1.90;;
68976;SDS011;56029;52.568;13.588;2023-04-24T07:43:20;3.72;;;1.98;;
68976;SDS011;56029;52.568;13.588;2023-04-24T07:45:46;2.67;;;1.80;;
68976;SDS011;56029;52.568;13.588;2023-04-24T07:48:12;4.03;;;1.90;;
68976;SDS011;56029;52.568;13.588;2023-04-24T07:50:41;3.00;;;1.70;;
68976;SDS011;56029;52.568;13.588;2023-04-24T07:53:07;2.67;;;1.80;;
68976;SDS011;56029;52.568;13.588;2023-04-24T07:55:32;2.43;;;1.70;;
68976;SDS011;56029;52.568;13.588;2023-04-24T07:57:58;3.55;;;1.40;;
68976;SDS011;56029;52.568;13.588;2023-04-24T08:00:23;2.77;;;1.70;;
68976;SDS011;56029;52.568;13.588;2023-04-24T08:02:49;2.70;;;1.50;;
68976;SDS011;56029;52.568;13.588;2023-04-24T08:05:15;3.60;;;1.63;;
68976;SDS011;56029;52.568;13.588;2023-04-24T08:07:41;2.20;;;1.40;;
68976;SDS011;56029;52.568;13.588;2023-04-24T08:10:09;2.60;;;1.40;;
68976;SDS011;56029;52.568;13.588;2023-04-24T08:12:35;2.83;;;1.50;;
68976;SDS011;56029;52.568;13.588;2023-04-24T08:15:02;2.65;;;1.50;;
68976;SDS011;56029;52.568;13.588;2023-04-24T08:17:27;2.60;;;1.50;;
68976;SDS011;56029;52.568;13.588;2023-04-24T08:19:53;2.40;;;1.40;;
68976;SDS011;56029;52.568;13.588;2023-04-24T08:22:29;1.93;;;1.10;;
68976;SDS011;56029;52.568;13.588;2023-04-24T08:24:55;2.10;;;1.30;;
68976;SDS011;56029;52.568;13.588;2023-04-24T08:27:22;3.72;;;1.40;;
68976;SDS011;56029;52.568;13.588;2023-04-24T08:29:49;2.70;;;1.30;;
68976;SDS011;56029;52.568;13.588;2023-04-24T08:32:15;1.65;;;1.30;;
68976;SDS011;56029;52.568;13.588;2023-04-24T08:34:41;2.77;;;1.30;;
68976;SDS011;56029;52.568;13.588;2023-04-24T08:37:06;2.97;;;1.30;;
68976;SDS011;56029;52.568;13.588;2023-04-24T08:39:32;2.57;;;1.30;;
68976;SDS011;56029;52.568;13.588;2023-04-24T08:41:58;2.78;;;1.27;;
68976;SDS011;56029;52.568;13.588;2023-04-24T08:44:31;2.05;;;1.20;;
68976;SDS011;56029;52.568;13.588;2023-04-24T08:46:57;1.33;;;1.03;;
68976;SDS011;56029;52.568;13.588;2023-04-24T08:49:23;1.45;;;1.08;;
68976;SDS011;56029;52.568;13.588;2023-04-24T08:51:49;1.90;;;1.10;;
68976;SDS011;56029;52.568;13.588;2023-04-24T08:54:17;1.92;;;1.10;;
68976;SDS011;56029;52.568;13.588;2023-04-24T08:56:59;2.63;;;1.10;;
68976;SDS011;56029;52.568;13.588;2023-04-24T08:59:27;1.50;;;1.20;;
68976;SDS011;56029;52.568;13.588;2023-04-24T09:01:53;1.50;;;1.20;;
68976;SDS011;56029;52.568;13.588;2023-04-24T09:04:20;3.47;;;1.50;;
68976;SDS011;56029;52.568;13.588;2023-04-24T09:06:49;2.10;;;1.10;;
68976;SDS011;56029;52.568;13.588;2023-04-24T09:09:16;3.33;;;1.30;;
68976;SDS011;56029;52.568;13.588;2023-04-24T09:11:43;1.30;;;1.10;;
68976;SDS011;56029;52.568;13.588;2023-04-24T09:14:10;1.90;;;1.00;;
68976;SDS011;56029;52.568;13.588;2023-04-24T09:16:36;3.60;;;1.50;;
68976;SDS011;56029;52.568;13.588;2023-04-24T09:19:02;3.20;;;1.43;;
68976;SDS011;56029;52.568;13.588;2023-04-24T09:21:32;1.92;;;1.48;;
68976;SDS011;56029;52.568;13.588;2023-04-24T09:24:00;2.35;;;1.58;;
68976;SDS011;56029;52.568;13.588;2023-04-24T09:26:29;2.05;;;1.40;;
68976;SDS011;56029;52.568;13.588;2023-04-24T09:28:59;3.33;;;1.58;;
68976;SDS011;56029;52.568;13.588;2023-04-24T09:31:26;1.60;;;1.23;;
68976;SDS011;56029;52.568;13.588;2023-04-24T09:33:54;2.53;;;1.20;;
68976;SDS011;56029;52.568;13.588;2023-04-24T09:36:28;1.85;;;1.30;;
68976;SDS011;56029;52.568;13.588;2023-04-24T09:39:01;3.95;;;1.20;;
68976;SDS011;56029;52.568;13.588;2023-04-24T09:41:27;2.58;;;1.20;;
68976;SDS011;56029;52.568;13.588;2023-04-24T09:43:54;1.73;;;1.23;;
68976;SDS011;56029;52.568;13.588;2023-04-24T09:46:21;1.92;;;1.30;;
68976;SDS011;56029;52.568;13.588;2023-04-24T09:48:54;1.50;;;1.20;;
68976;SDS011;56029;52.568;13.588;2023-04-24T09:51:32;2.45;;;1.20;;
68976;SDS011;56029;52.568;13.588;2023-04-24T09:54:00;2.13;;;1.15;;
68976;SDS011;56029;52.568;13.588;2023-04-24T09:56:26;2.30;;;1.30;;
68976;SDS011;56029;52.568;13.588;2023-04-24T09:58:52;1.83;;;1.00;;
68976;SDS011;56029;52.568;13.588;2023-04-24T10:01:29;3.13;;;1.20;;
68976;SDS011;56029;52.568;13.588;2023-04-24T10:03:55;2.65;;;1.30;;
68976;SDS011;56029;52.568;13.588;2023-04-24T10:06:21;1.80;;;1.30;;
68976;SDS011;56029;52.568;13.588;2023-04-24T10:08:47;2.13;;;1.40;;
68976;SDS011;56029;52.568;13.588;2023-04-24T10:11:13;3.30;;;1.40;;
68976;SDS011;56029;52.568;13.588;2023-04-24T10:13:39;4.15;;;1.60;;
68976;SDS011;56029;52.568;13.588;2023-04-24T10:16:05;3.35;;;1.50;;
68976;SDS011;56029;52.568;13.588;2023-04-24T10:18:32;3.55;;;1.90;;
68976;SDS011;56029;52.568;13.588;2023-04-24T10:20:59;2.17;;;1.70;;
68976;SDS011;56029;52.568;13.588;2023-04-24T10:23:25;2.42;;;1.58;;
68976;SDS011;56029;52.568;13.588;2023-04-24T10:25:50;2.23;;;1.50;;
68976;SDS011;56029;52.568;13.588;2023-04-24T10:28:17;2.90;;;1.50;;
68976;SDS011;56029;52.568;13.588;2023-04-24T10:30:44;2.92;;;1.40;;
68976;SDS011;56029;52.568;13.588;2023-04-24T10:33:10;3.17;;;1.50;;
68976;SDS011;56029;52.568;13.588;2023-04-24T10:35:40;2.30;;;1.30;;
68976;SDS011;56029;52.568;13.588;2023-04-24T10:38:13;2.87;;;1.50;;
68976;SDS011;56029;52.568;13.588;2023-04-24T10:40:39;1.63;;;1.30;;
68976;SDS011;56029;52.568;13.588;2023-04-24T10:43:05;3.47;;;1.40;;
68976;SDS011;56029;52.568;13.588;2023-04-24T10:45:37;2.63;;;1.50;;
68976;SDS011;56029;52.568;13.588;2023-04-24T10:48:04;3.10;;;1.30;;
68976;SDS011;56029;52.568;13.588;2023-04-24T10:50:50;3.33;;;1.40;;
68976;SDS011;56029;52.568;13.588;2023-04-24T10:53:18;1.27;;;1.10;;
68976;SDS011;56029;52.568;13.588;2023-04-24T10:58:41;4.50;;;1.30;;
68976;SDS011;56029;52.568;13.588;2023-04-24T11:01:27;1.90;;;1.47;;
68976;SDS011;56029;52.568;13.588;2023-04-24T11:03:55;1.50;;;1.10;;
68976;SDS011;56029;52.568;13.588;2023-04-24T11:06:29;2.00;;;1.20;;
68976;SDS011;56029;52.568;13.588;2023-04-24T11:09:06;2.45;;;1.30;;
68976;SDS011;56029;52.568;13.588;2023-04-24T11:11:33;1.70;;;1.55;;
68976;SDS011;56029;52.568;13.588;2023-04-24T11:14:02;2.07;;;1.30;;
68976;SDS011;56029;52.568;13.588;2023-04-24T11:19:03;1.83;;;1.50;;
68976;SDS011;56029;52.568;13.588;2023-04-24T11:26:53;2.30;;;1.50;;
68976;SDS011;56029;52.568;13.588;2023-04-24T11:29:43;1.67;;;1.50;;
68976;SDS011;56029;52.568;13.588;2023-04-24T11:32:25;4.05;;;1.70;;
68976;SDS011;56029;52.568;13.588;2023-04-24T11:34:56;2.80;;;1.60;;
68976;SDS011;56029;52.568;13.588;2023-04-24T11:37:27;2.47;;;1.80;;
68976;SDS011;56029;52.568;13.588;2023-04-24T11:39:54;4.70;;;2.10;;
68976;SDS011;56029;52.568;13.588;2023-04-24T11:42:22;3.80;;;1.80;;
68976;SDS011;56029;52.568;13.588;2023-04-24T11:44:54;2.92;;;1.85;;
68976;SDS011;56029;52.568;13.588;2023-04-24T11:47:27;2.65;;;1.85;;
68976;SDS011;56029;52.568;13.588;2023-04-24T11:49:57;2.30;;;2.10;;
68976;SDS011;56029;52.568;13.588;2023-04-24T11:52:23;3.03;;;2.37;;
68976;SDS011;56029;52.568;13.588;2023-04-24T11:54:49;2.40;;;2.20;;
68976;SDS011;56029;52.568;13.588;2023-04-24T11:57:15;3.83;;;2.75;;
68976;SDS011;56029;52.568;13.588;2023-04-24T11:59:41;3.73;;;3.17;;
68976;SDS011;56029;52.568;13.588;2023-04-24T12:02:07;4.45;;;3.08;;
68976;SDS011;56029;52.568;13.588;2023-04-24T12:04:40;3.50;;;3.20;;
68976;SDS011;56029;52.568;13.588;2023-04-24T12:07:06;3.20;;;2.80;;
68976;SDS011;56029;52.568;13.588;2023-04-24T12:09:40;2.63;;;2.20;;
68976;SDS011;56029;52.568;13.588;2023-04-24T12:12:13;2.67;;;2.13;;
68976;SDS011;56029;52.568;13.588;2023-04-24T12:14:47;2.42;;;1.95;;
68976;SDS011;56029;52.568;13.588;2023-04-24T12:17:14;2.72;;;1.90;;
68976;SDS011;56029;52.568;13.588;2023-04-24T12:19:44;3.03;;;2.00;;
68976;SDS011;56029;52.568;13.588;2023-04-24T12:22:11;2.30;;;2.10;;
68976;SDS011;56029;52.568;13.588;2023-04-24T12:24:54;2.53;;;2.05;;
68976;SDS011;56029;52.568;13.588;2023-04-24T12:27:21;2.30;;;2.10;;
68976;SDS011;56029;52.568;13.588;2023-04-24T12:29:51;2.43;;;2.10;;
68976;SDS011;56029;52.568;13.588;2023-04-24T12:32:18;2.67;;;1.83;;
68976;SDS011;56029;52.568;13.588;2023-04-24T12:34:44;3.83;;;2.20;;
68976;SDS011;56029;52.568;13.588;2023-04-24T12:37:13;3.40;;;2.10;;
68976;SDS011;56029;52.568;13.588;2023-04-24T12:39:38;3.17;;;2.53;;
68976;SDS011;56029;52.568;13.588;2023-04-24T12:42:26;4.28;;;2.40;;
68976;SDS011;56029;52.568;13.588;2023-04-24T12:44:57;3.58;;;2.30;;
68976;SDS011;56029;52.568;13.588;2023-04-24T12:47:24;3.38;;;2.10;;
68976;SDS011;56029;52.568;13.588;2023-04-24T12:49:51;4.17;;;2.30;;
68976;SDS011;56029;52.568;13.588;2023-04-24T12:52:18;2.13;;;1.92;;
68976;SDS011;56029;52.568;13.588;2023-04-24T12:54:45;2.80;;;1.92;;
68976;SDS011;56029;52.568;13.588;2023-04-24T12:57:11;1.83;;;1.65;;
68976;SDS011;56029;52.568;13.588;2023-04-24T12:59:37;2.37;;;1.80;;
68976;SDS011;56029;52.568;13.588;2023-04-24T13:02:04;2.20;;;1.77;;
68976;SDS011;56029;52.568;13.588;2023-04-24T13:04:30;2.33;;;1.77;;
68976;SDS011;56029;52.568;13.588;2023-04-24T13:06:55;1.67;;;1.50;;
68976;SDS011;56029;52.568;13.588;2023-04-24T13:09:21;2.30;;;1.73;;
68976;SDS011;56029;52.568;13.588;2023-04-24T13:11:46;1.97;;;1.30;;
68976;SDS011;56029;52.568;13.588;2023-04-24T13:14:12;1.90;;;1.40;;
68976;SDS011;56029;52.568;13.588;2023-04-24T13:16:37;3.03;;;1.40;;
68976;SDS011;56029;52.568;13.588;2023-04-24T13:19:03;2.00;;;1.30;;
68976;SDS011;56029;52.568;13.588;2023-04-24T13:21:29;2.75;;;1.52;;
68976;SDS011;56029;52.568;13.588;2023-04-24T13:23:58;1.77;;;1.27;;
68976;SDS011;56029;52.568;13.588;2023-04-24T13:26:24;3.15;;;1.20;;
68976;SDS011;56029;52.568;13.588;2023-04-24T13:28:50;2.60;;;1.30;;
68976;SDS011;56029;52.568;13.588;2023-04-24T13:31:15;2.73;;;1.20;;
68976;SDS011;56029;52.568;13.588;2023-04-24T13:33:41;1.38;;;1.10;;
68976;SDS011;56029;52.568;13.588;2023-04-24T13:36:06;4.00;;;1.40;;
68976;SDS011;56029;52.568;13.588;2023-04-24T13:38:32;3.42;;;1.20;;
68976;SDS011;56029;52.568;13.588;2023-04-24T13:40:58;2.83;;;1.20;;
68976;SDS011;56029;52.568;13.588;2023-04-24T13:43:23;1.92;;;1.30;;
68976;SDS011;56029;52.568;13.588;2023-04-24T13:45:49;1.40;;;1.10;;
68976;SDS011;56029;52.568;13.588;2023-04-24T13:48:14;2.27;;;1.30;;
68976;SDS011;56029;52.568;13.588;2023-04-24T13:50:41;2.33;;;1.20;;
68976;SDS011;56029;52.568;13.588;2023-04-24T13:53:07;1.63;;;1.20;;
68976;SDS011;56029;52.568;13.588;2023-04-24T13:55:32;2.17;;;1.40;;
68976;SDS011;56029;52.568;13.588;2023-04-24T13:57:58;2.67;;;1.30;;
68976;SDS011;56029;52.568;13.588;2023-04-24T14:00:23;2.33;;;1.20;;
68976;SDS011;56029;52.568;13.588;2023-04-24T14:02:49;2.70;;;1.30;;
68976;SDS011;56029;52.568;13.588;2023-04-24T14:05:15;2.65;;;1.20;;
68976;SDS011;56029;52.568;13.588;2023-04-24T14:07:41;1.43;;;1.10;;
68976;SDS011;56029;52.568;13.588;2023-04-24T14:10:07;1.17;;;1.00;;
68976;SDS011;56029;52.568;13.588;2023-04-24T14:12:33;1.70;;;1.10;;
68976;SDS011;56029;52.568;13.588;2023-04-24T14:14:59;1.60;;;1.20;;
68976;SDS011;56029;52.568;13.588;2023-04-24T14:17:24;2.95;;;1.30;;
68976;SDS011;56029;52.568;13.588;2023-04-24T14:19:50;1.63;;;1.23;;
68976;SDS011;56029;52.568;13.588;2023-04-24T14:22:17;3.15;;;1.20;;
68976;SDS011;56029;52.568;13.588;2023-04-24T14:24:42;2.37;;;1.20;;
68976;SDS011;56029;52.568;13.588;2023-04-24T14:27:08;1.30;;;1.15;;
68976;SDS011;56029;52.568;13.588;2023-04-24T14:29:34;2.17;;;1.30;;
68976;SDS011;56029;52.568;13.588;2023-04-24T14:31:59;1.67;;;1.25;;
68976;SDS011;56029;52.568;13.588;2023-04-24T14:34:25;1.77;;;1.30;;
68976;SDS011;56029;52.568;13.588;2023-04-24T14:36:51;1.50;;;1.25;;